createdAt,value
2022-08-25T00:00:39.927Z,22.52
2022-08-25T00:01:39.941Z,22.51
2022-08-25T00:02:39.941Z,22.52
2022-08-25T00:03:39.900Z,22.48
2022-08-25T00:04:39.882Z,22.43
2022-08-25T00:05:39.910Z,22.38
2022-08-25T00:06:39.902Z,22.38
2022-08-25T00:07:39.856Z,22.38
2022-08-25T00:08:39.843Z,22.36
2022-08-25T00:09:39.834Z,22.37
2022-08-25T00:10:39.823Z,22.36
2022-08-25T00:11:39.843Z,22.33
2022-08-25T00:12:39.805Z,22.30
2022-08-25T00:13:39.795Z,22.27
2022-08-25T00:14:39.776Z,22.27
2022-08-25T00:15:39.835Z,22.25
2022-08-25T00:16:39.787Z,22.25
2022-08-25T00:17:39.756Z,22.21
2022-08-25T00:18:39.745Z,22.19
2022-08-25T00:19:39.736Z,22.19
2022-08-25T00:20:39.717Z,22.18
2022-08-25T00:21:39.740Z,22.18
2022-08-25T00:22:39.700Z,22.21
2022-08-25T00:23:39.697Z,22.19
2022-08-25T00:24:39.680Z,22.16
2022-08-25T00:25:39.678Z,22.15
2022-08-25T00:26:39.690Z,22.13
2022-08-25T00:27:39.651Z,22.13
2022-08-25T00:28:39.642Z,22.09
2022-08-25T00:29:39.632Z,22.09
2022-08-25T00:30:39.621Z,22.03
2022-08-25T00:31:39.654Z,21.96
2022-08-25T00:32:39.593Z,21.88
2022-08-25T00:33:39.593Z,21.81
2022-08-25T00:34:39.585Z,21.82
2022-08-25T00:35:39.575Z,21.81
2022-08-25T00:36:39.584Z,21.77
2022-08-25T00:37:39.554Z,21.77
2022-08-25T00:38:39.535Z,21.75
2022-08-25T00:39:39.535Z,21.69
2022-08-25T00:40:39.518Z,21.66
2022-08-25T00:41:39.536Z,21.71
2022-08-25T00:42:39.497Z,21.69
2022-08-25T00:43:39.498Z,21.71
2022-08-25T00:44:39.477Z,21.71
2022-08-25T00:45:39.479Z,21.73
2022-08-25T00:46:39.522Z,21.74
2022-08-25T00:47:39.456Z,21.75
2022-08-25T00:48:39.438Z,21.74
2022-08-25T00:49:39.437Z,21.77
2022-08-25T00:50:39.417Z,21.73
2022-08-25T00:51:39.439Z,21.73
2022-08-25T00:52:39.401Z,21.71
2022-08-25T00:53:39.392Z,21.71
2022-08-25T00:54:39.382Z,21.66
2022-08-25T00:55:39.372Z,21.65
2022-08-25T00:56:39.381Z,21.63
2022-08-25T00:57:39.352Z,21.66
2022-08-25T00:58:39.333Z,21.63
2022-08-25T00:59:39.337Z,21.62
2022-08-25T01:00:39.315Z,21.60
2022-08-25T01:01:39.482Z,21.60
2022-08-25T01:02:39.329Z,21.62
2022-08-25T01:03:39.294Z,21.60
2022-08-25T01:04:39.277Z,21.60
2022-08-25T01:05:40.221Z,21.59
2022-08-25T01:06:39.276Z,21.58
2022-08-25T01:07:39.247Z,21.58
2022-08-25T01:08:39.233Z,21.60
2022-08-25T01:09:39.228Z,21.58
2022-08-25T01:10:39.209Z,21.51
2022-08-25T01:11:39.230Z,21.48
2022-08-25T01:12:39.189Z,21.51
2022-08-25T01:13:39.188Z,21.50
2022-08-25T01:14:39.169Z,21.48
2022-08-25T01:15:39.196Z,21.44
2022-08-25T01:16:39.170Z,21.43
2022-08-25T01:17:39.144Z,21.41
2022-08-25T01:18:39.131Z,21.43
2022-08-25T01:19:39.134Z,21.43
2022-08-25T01:20:39.109Z,21.43
2022-08-25T01:21:39.132Z,21.44
2022-08-25T01:22:39.111Z,21.41
2022-08-25T01:23:39.083Z,21.41
2022-08-25T01:24:39.065Z,21.41
2022-08-25T01:25:39.062Z,21.40
2022-08-25T01:26:39.046Z,21.38
2022-08-25T01:27:39.081Z,21.37
2022-08-25T01:28:39.034Z,21.32
2022-08-25T01:29:39.025Z,21.29
2022-08-25T01:30:39.094Z,21.28
2022-08-25T01:31:39.046Z,21.28
2022-08-25T01:32:39.007Z,21.23
2022-08-25T01:33:38.976Z,21.23
2022-08-25T01:34:38.966Z,21.20
2022-08-25T01:35:38.967Z,21.25
2022-08-25T01:36:38.950Z,21.23
2022-08-25T01:37:38.965Z,21.20
2022-08-25T01:38:38.942Z,21.16
2022-08-25T01:39:38.919Z,21.16
2022-08-25T01:40:38.906Z,21.13
2022-08-25T01:41:38.923Z,21.13
2022-08-25T01:42:38.880Z,21.11
2022-08-25T01:43:38.883Z,21.08
2022-08-25T01:44:38.868Z,21.05
2022-08-25T01:45:38.859Z,21.04
2022-08-25T01:46:38.951Z,21.01
2022-08-25T01:47:38.853Z,21.04
2022-08-25T01:48:38.825Z,21.03
2022-08-25T01:49:38.827Z,21.03
2022-08-25T01:50:38.803Z,21.04
2022-08-25T01:51:38.845Z,21.03
2022-08-25T01:52:38.784Z,21.01
2022-08-25T01:53:38.774Z,21.01
2022-08-25T01:54:38.764Z,20.98
2022-08-25T01:55:38.765Z,20.95
2022-08-25T01:56:38.786Z,20.97
2022-08-25T01:57:38.757Z,20.97
2022-08-25T01:58:38.725Z,20.93
2022-08-25T01:59:38.716Z,20.93
2022-08-25T02:00:38.707Z,20.90
2022-08-25T02:01:38.780Z,20.89
2022-08-25T02:02:38.729Z,20.89
2022-08-25T02:03:38.684Z,20.89
2022-08-25T02:04:38.658Z,20.89
2022-08-25T02:05:38.657Z,20.86
2022-08-25T02:06:38.661Z,20.86
2022-08-25T02:07:38.637Z,20.88
2022-08-25T02:08:38.619Z,20.85
2022-08-25T02:09:38.613Z,20.82
2022-08-25T02:10:38.600Z,20.82
2022-08-25T02:11:38.621Z,20.85
2022-08-25T02:12:38.582Z,20.83
2022-08-25T02:13:38.572Z,20.82
2022-08-25T02:14:38.554Z,20.82
2022-08-25T02:15:38.553Z,20.80
2022-08-25T02:16:38.600Z,20.82
2022-08-25T02:17:38.531Z,20.83
2022-08-25T02:18:38.523Z,20.85
2022-08-25T02:19:38.506Z,20.85
2022-08-25T02:20:38.496Z,20.88
2022-08-25T02:21:38.508Z,20.86
2022-08-25T02:22:38.476Z,20.90
2022-08-25T02:23:38.466Z,20.89
2022-08-25T02:24:38.457Z,20.90
2022-08-25T02:25:38.446Z,20.90
2022-08-25T02:26:38.455Z,20.90
2022-08-25T02:27:38.427Z,20.90
2022-08-25T02:28:38.408Z,20.88
2022-08-25T02:29:38.399Z,20.88
2022-08-25T02:30:38.541Z,20.85
2022-08-25T02:31:38.409Z,20.79
2022-08-25T02:32:38.369Z,20.74
2022-08-25T02:33:38.381Z,20.70
2022-08-25T02:34:38.349Z,20.68
2022-08-25T02:35:38.342Z,20.71
2022-08-25T02:36:38.352Z,20.68
2022-08-25T02:37:38.321Z,20.68
2022-08-25T02:38:38.311Z,20.67
2022-08-25T02:39:38.303Z,20.67
2022-08-25T02:40:38.283Z,20.65
2022-08-25T02:41:38.303Z,20.63
2022-08-25T02:42:38.277Z,20.65
2022-08-25T02:43:38.255Z,20.67
2022-08-25T02:44:38.253Z,20.67
2022-08-25T02:45:38.279Z,20.65
2022-08-25T02:46:38.249Z,20.65
2022-08-25T02:47:38.219Z,20.67
2022-08-25T02:48:38.199Z,20.67
2022-08-25T02:49:38.197Z,20.64
2022-08-25T02:50:38.177Z,20.58
2022-08-25T02:51:38.207Z,20.53
2022-08-25T02:52:38.156Z,20.50
2022-08-25T02:53:38.150Z,20.49
2022-08-25T02:54:38.138Z,20.48
2022-08-25T02:55:38.129Z,20.46
2022-08-25T02:56:38.139Z,20.48
2022-08-25T02:57:38.111Z,20.48
2022-08-25T02:58:38.092Z,20.49
2022-08-25T02:59:38.092Z,20.48
2022-08-25T03:00:38.072Z,20.48
2022-08-25T03:01:38.120Z,20.46
2022-08-25T03:02:38.051Z,20.44
2022-08-25T03:03:39.503Z,20.39
2022-08-25T03:04:38.109Z,20.39
2022-08-25T03:05:38.031Z,20.34
2022-08-25T03:06:38.013Z,20.30
2022-08-25T03:07:38.024Z,20.27
2022-08-25T03:08:37.997Z,20.26
2022-08-25T03:09:38.276Z,20.27
2022-08-25T03:10:37.977Z,20.30
2022-08-25T03:11:37.985Z,20.32
2022-08-25T03:12:37.953Z,20.33
2022-08-25T03:13:37.939Z,20.32
2022-08-25T03:14:37.946Z,20.33
2022-08-25T03:15:37.981Z,20.32
2022-08-25T03:16:37.968Z,20.29
2022-08-25T03:17:37.905Z,20.32
2022-08-25T03:18:37.889Z,20.30
2022-08-25T03:19:37.878Z,20.30
2022-08-25T03:20:37.876Z,20.30
2022-08-25T03:21:37.879Z,20.29
2022-08-25T03:22:37.849Z,20.30
2022-08-25T03:23:37.830Z,20.30
2022-08-25T03:24:37.821Z,20.27
2022-08-25T03:25:37.809Z,20.30
2022-08-25T03:26:37.841Z,20.29
2022-08-25T03:27:37.791Z,20.26
2022-08-25T03:28:37.788Z,20.22
2022-08-25T03:29:37.773Z,20.19
2022-08-25T03:30:37.763Z,20.17
2022-08-25T03:31:37.782Z,20.17
2022-08-25T03:32:37.747Z,20.17
2022-08-25T03:33:37.731Z,20.19
2022-08-25T03:34:37.724Z,20.19
2022-08-25T03:35:37.714Z,20.17
2022-08-25T03:36:37.724Z,20.17
2022-08-25T03:37:37.692Z,20.12
2022-08-25T03:38:37.686Z,20.12
2022-08-25T03:39:37.667Z,20.12
2022-08-25T03:40:37.656Z,20.14
2022-08-25T03:41:37.667Z,20.17
2022-08-25T03:42:37.639Z,20.19
2022-08-25T03:43:37.626Z,20.23
2022-08-25T03:44:37.618Z,20.22
2022-08-25T03:45:37.635Z,20.19
2022-08-25T03:46:37.638Z,20.19
2022-08-25T03:47:37.588Z,20.18
2022-08-25T03:48:37.578Z,20.18
2022-08-25T03:49:37.560Z,20.18
2022-08-25T03:50:37.551Z,20.15
2022-08-25T03:51:37.560Z,20.15
2022-08-25T03:52:42.265Z,20.12
2022-08-25T03:53:38.522Z,20.11
2022-08-25T03:54:37.512Z,20.00
2022-08-25T03:55:37.510Z,19.97
2022-08-25T03:56:37.522Z,19.93
2022-08-25T03:57:37.483Z,19.94
2022-08-25T03:58:37.440Z,19.92
2022-08-25T03:59:37.464Z,19.92
2022-08-25T04:00:37.455Z,19.93
2022-08-25T04:01:37.494Z,19.90
2022-08-25T04:02:37.456Z,19.90
2022-08-25T04:03:37.424Z,19.90
2022-08-25T04:04:37.386Z,19.89
2022-08-25T04:05:37.403Z,19.87
2022-08-25T04:06:37.416Z,19.84
2022-08-25T04:07:37.346Z,19.78
2022-08-25T04:08:37.319Z,19.68
2022-08-25T04:09:37.307Z,19.62
2022-08-25T04:10:37.307Z,19.63
2022-08-25T04:11:37.321Z,19.63
2022-08-25T04:12:37.278Z,19.57
2022-08-25T04:13:37.268Z,19.56
2022-08-25T04:14:37.268Z,19.56
2022-08-25T04:15:37.249Z,19.56
2022-08-25T04:16:37.291Z,19.56
2022-08-25T04:17:37.253Z,19.53
2022-08-25T04:18:37.232Z,19.53
2022-08-25T04:19:37.212Z,19.57
2022-08-25T04:20:37.204Z,19.57
2022-08-25T04:21:37.192Z,19.60
2022-08-25T04:22:37.202Z,19.62
2022-08-25T04:23:37.183Z,19.63
2022-08-25T04:24:37.164Z,19.63
2022-08-25T04:25:37.152Z,19.64
2022-08-25T04:26:37.144Z,19.64
2022-08-25T04:27:37.155Z,19.63
2022-08-25T04:28:37.126Z,19.63
2022-08-25T04:29:37.106Z,19.60
2022-08-25T04:30:37.108Z,19.60
2022-08-25T04:31:37.112Z,19.57
2022-08-25T04:32:37.113Z,19.59
2022-08-25T04:33:37.067Z,19.60
2022-08-25T04:34:37.065Z,19.62
2022-08-25T04:35:37.060Z,19.62
2022-08-25T04:36:37.046Z,19.56
2022-08-25T04:37:37.052Z,19.54
2022-08-25T04:38:37.019Z,19.54
2022-08-25T04:39:37.008Z,19.56
2022-08-25T04:40:37.057Z,19.57
2022-08-25T04:41:37.000Z,19.57
2022-08-25T04:42:37.011Z,19.60
2022-08-25T04:43:36.970Z,19.62
2022-08-25T04:44:36.971Z,19.62
2022-08-25T04:45:36.984Z,19.59
2022-08-25T04:46:36.951Z,19.56
2022-08-25T04:47:36.952Z,19.54
2022-08-25T04:48:36.937Z,19.59
2022-08-25T04:49:36.914Z,19.59
2022-08-25T04:50:36.913Z,19.60
2022-08-25T04:51:36.900Z,19.62
2022-08-25T04:52:36.904Z,19.67
2022-08-25T04:53:36.875Z,19.67
2022-08-25T04:54:37.229Z,19.64
2022-08-25T04:55:36.846Z,19.64
2022-08-25T04:56:36.854Z,19.67
2022-08-25T04:57:36.855Z,19.64
2022-08-25T04:58:36.826Z,19.63
2022-08-25T04:59:36.819Z,19.64
2022-08-25T05:00:36.874Z,19.67
2022-08-25T05:01:36.796Z,19.71
2022-08-25T05:02:36.809Z,19.74
2022-08-25T05:03:36.769Z,19.78
2022-08-25T05:04:36.808Z,19.79
2022-08-25T05:05:36.748Z,19.79
2022-08-25T05:06:36.779Z,19.79
2022-08-25T05:07:36.740Z,19.75
2022-08-25T05:08:36.727Z,19.72
2022-08-25T05:09:36.711Z,19.70
2022-08-25T05:10:36.701Z,19.70
2022-08-25T05:11:36.711Z,19.72
2022-08-25T05:12:36.682Z,19.74
2022-08-25T05:13:36.672Z,19.78
2022-08-25T05:14:36.664Z,19.81
2022-08-25T05:15:36.652Z,19.87
2022-08-25T05:16:36.698Z,19.87
2022-08-25T05:17:36.630Z,19.90
2022-08-25T05:18:36.636Z,19.92
2022-08-25T05:19:36.614Z,19.94
2022-08-25T05:20:36.604Z,19.97
2022-08-25T05:21:36.615Z,19.99
2022-08-25T05:22:36.584Z,20.04
2022-08-25T05:23:36.570Z,20.04
2022-08-25T05:24:36.566Z,20.08
2022-08-25T05:25:36.555Z,20.09
2022-08-25T05:26:36.567Z,20.11
2022-08-25T05:27:36.548Z,20.12
2022-08-25T05:28:36.528Z,20.11
2022-08-25T05:29:36.510Z,20.14
2022-08-25T05:30:36.507Z,20.17
2022-08-25T05:31:41.375Z,20.19
2022-08-25T05:32:37.499Z,20.22
2022-08-25T05:33:36.470Z,20.26
2022-08-25T05:34:36.469Z,20.30
2022-08-25T05:35:36.460Z,20.32
2022-08-25T05:36:36.471Z,20.36
2022-08-25T05:37:36.431Z,20.41
2022-08-25T05:38:36.429Z,20.42
2022-08-25T05:39:36.419Z,20.44
2022-08-25T05:40:36.412Z,20.46
2022-08-25T05:41:36.412Z,20.48
2022-08-25T05:42:36.393Z,20.53
2022-08-25T05:43:36.376Z,20.53
2022-08-25T05:44:36.375Z,20.55
2022-08-25T05:45:36.403Z,20.58
2022-08-25T05:46:36.365Z,20.63
2022-08-25T05:47:36.334Z,20.67
2022-08-25T05:48:36.326Z,20.68
2022-08-25T05:49:36.307Z,20.73
2022-08-25T05:50:36.307Z,20.75
2022-08-25T05:51:36.307Z,20.82
2022-08-25T05:52:36.288Z,20.88
2022-08-25T05:53:36.275Z,20.93
2022-08-25T05:54:36.259Z,20.98
2022-08-25T05:55:36.249Z,21.01
2022-08-25T05:56:36.269Z,21.05
2022-08-25T05:57:36.232Z,21.08
2022-08-25T05:58:36.221Z,21.13
2022-08-25T05:59:36.210Z,21.18
2022-08-25T06:00:36.233Z,21.23
2022-08-25T06:01:36.182Z,21.26
2022-08-25T06:02:36.199Z,21.30
2022-08-25T06:03:36.227Z,21.35
2022-08-25T06:04:39.574Z,21.43
2022-08-25T06:05:37.150Z,21.45
2022-08-25T06:06:36.133Z,21.48
2022-08-25T06:07:36.143Z,21.53
2022-08-25T06:08:36.115Z,21.58
2022-08-25T06:09:36.102Z,21.60
2022-08-25T06:10:36.094Z,21.60
2022-08-25T06:11:36.077Z,21.63
2022-08-25T06:12:36.101Z,21.65
2022-08-25T06:13:36.065Z,21.69
2022-08-25T06:14:36.055Z,21.73
2022-08-25T06:15:36.037Z,21.74
2022-08-25T06:16:36.077Z,21.74
2022-08-25T06:17:36.038Z,21.78
2022-08-25T06:18:36.009Z,21.81
2022-08-25T06:19:37.130Z,21.82
2022-08-25T06:20:36.991Z,21.85
2022-08-25T06:21:35.979Z,21.90
2022-08-25T06:22:36.000Z,21.94
2022-08-25T06:23:35.960Z,21.97
2022-08-25T06:24:35.951Z,22.01
2022-08-25T06:25:35.938Z,22.06
2022-08-25T06:26:35.933Z,22.09
2022-08-25T06:27:35.941Z,22.13
2022-08-25T06:28:35.911Z,22.18
2022-08-25T06:29:35.892Z,22.22
2022-08-25T06:30:35.892Z,22.27
2022-08-25T06:31:36.003Z,22.31
2022-08-25T06:32:35.885Z,22.33
2022-08-25T06:33:35.865Z,22.36
2022-08-25T06:34:35.855Z,22.38
2022-08-25T06:35:35.839Z,22.44
2022-08-25T06:36:35.856Z,22.48
2022-08-25T06:37:35.816Z,22.53
2022-08-25T06:38:35.819Z,22.56
2022-08-25T06:39:35.796Z,22.59
2022-08-25T06:40:35.839Z,22.66
2022-08-25T06:41:36.697Z,22.68
2022-08-25T06:42:35.788Z,22.73
2022-08-25T06:43:35.763Z,22.76
2022-08-25T06:44:35.751Z,22.76
2022-08-25T06:45:35.730Z,22.77
2022-08-25T06:46:37.102Z,22.77
2022-08-25T06:47:35.731Z,22.77
2022-08-25T06:48:35.710Z,22.78
2022-08-25T06:49:36.354Z,22.80
2022-08-25T06:50:35.688Z,22.83
2022-08-25T06:51:35.715Z,22.83
2022-08-25T06:52:35.685Z,22.85
2022-08-25T06:53:35.660Z,22.88
2022-08-25T06:54:35.644Z,22.89
2022-08-25T06:55:35.635Z,22.92
2022-08-25T06:56:35.653Z,22.89
2022-08-25T06:57:35.613Z,22.89
2022-08-25T06:58:35.604Z,22.89
2022-08-25T06:59:35.585Z,22.91
2022-08-25T07:00:35.663Z,22.95
2022-08-25T07:01:35.687Z,22.98
2022-08-25T07:02:35.687Z,23.04
2022-08-25T07:03:35.548Z,23.08
2022-08-25T07:04:35.547Z,23.13
2022-08-25T07:05:43.392Z,23.22
2022-08-25T07:06:36.553Z,23.26
2022-08-25T07:07:42.934Z,23.31
2022-08-25T07:08:36.512Z,23.37
2022-08-25T07:09:39.023Z,23.39
2022-08-25T07:10:35.509Z,23.39
2022-08-25T07:11:35.510Z,23.39
2022-08-25T07:12:35.461Z,23.39
2022-08-25T07:13:35.460Z,23.37
2022-08-25T07:14:35.441Z,23.36
2022-08-25T07:15:35.431Z,23.34
2022-08-25T07:16:35.507Z,23.37
2022-08-25T07:17:35.412Z,23.31
2022-08-25T07:18:35.403Z,23.36
2022-08-25T07:19:35.384Z,23.37
2022-08-25T07:20:35.394Z,23.41
2022-08-25T07:21:35.715Z,23.45
2022-08-25T07:22:35.367Z,23.51
2022-08-25T07:23:35.346Z,23.59
2022-08-25T07:24:35.345Z,23.69
2022-08-25T07:25:35.334Z,23.76
2022-08-25T07:26:38.244Z,23.85
2022-08-25T07:27:35.310Z,23.91
2022-08-25T07:28:35.304Z,23.98
2022-08-25T07:29:35.295Z,24.06
2022-08-25T07:30:36.275Z,24.13
2022-08-25T07:31:35.401Z,24.22
2022-08-25T07:32:35.269Z,24.26
2022-08-25T07:33:35.250Z,24.34
2022-08-25T07:34:35.240Z,24.40
2022-08-25T07:35:37.522Z,24.45
2022-08-25T07:36:35.241Z,24.48
2022-08-25T07:37:50.545Z,24.55
2022-08-25T07:38:36.195Z,24.59
2022-08-25T07:39:35.193Z,24.62
2022-08-25T07:40:35.236Z,24.65
2022-08-25T07:41:35.192Z,24.66
2022-08-25T07:42:35.161Z,24.66
2022-08-25T07:43:35.154Z,24.70
2022-08-25T07:44:35.135Z,24.74
2022-08-25T07:45:35.138Z,24.76
2022-08-25T07:46:35.176Z,24.76
2022-08-25T07:47:35.146Z,24.79
2022-08-25T07:48:35.086Z,24.81
2022-08-25T07:49:36.137Z,24.82
2022-08-25T07:50:35.077Z,24.86
2022-08-25T07:51:35.088Z,24.91
2022-08-25T07:52:35.054Z,24.99
2022-08-25T07:53:35.048Z,25.08
2022-08-25T07:54:35.544Z,25.15
2022-08-25T07:55:35.028Z,25.21
2022-08-25T07:56:35.037Z,25.30
2022-08-25T07:57:35.031Z,25.38
2022-08-25T07:58:34.991Z,25.48
2022-08-25T07:59:39.191Z,25.56
2022-08-25T08:00:36.077Z,25.61
2022-08-25T08:01:35.117Z,25.70
2022-08-25T08:02:34.987Z,25.75
2022-08-25T08:03:50.311Z,25.82
2022-08-25T08:04:35.941Z,25.90
2022-08-25T08:05:35.632Z,25.96
2022-08-25T08:06:34.934Z,26.05
2022-08-25T08:07:42.117Z,26.16
2022-08-25T08:08:35.885Z,26.24
2022-08-25T08:09:34.886Z,26.36
2022-08-25T08:10:54.133Z,26.49
2022-08-25T08:11:35.902Z,26.61
2022-08-25T08:12:34.857Z,26.73
2022-08-25T08:13:39.213Z,26.85
2022-08-25T08:14:36.788Z,27.00
2022-08-25T08:15:35.826Z,27.12
2022-08-25T08:16:34.903Z,27.23
2022-08-25T08:17:34.808Z,27.35
2022-08-25T08:18:34.791Z,27.45
2022-08-25T08:19:34.782Z,27.57
2022-08-25T08:20:42.307Z,27.68
2022-08-25T08:21:35.801Z,27.57
2022-08-25T08:22:34.759Z,27.50
2022-08-25T08:23:34.751Z,27.58
2022-08-25T08:24:44.664Z,27.72
2022-08-25T08:25:35.723Z,27.82
2022-08-25T08:26:57.708Z,27.93
2022-08-25T08:27:35.705Z,27.95
2022-08-25T08:28:34.694Z,27.97
2022-08-25T08:29:34.685Z,27.95
2022-08-25T08:30:34.675Z,27.98
2022-08-25T08:31:34.727Z,28.00
2022-08-25T08:32:53.222Z,28.09
2022-08-25T08:33:40.661Z,28.20
2022-08-25T08:34:35.628Z,28.17
2022-08-25T08:35:34.635Z,28.06
2022-08-25T08:36:34.656Z,28.15
2022-08-25T08:37:34.609Z,28.24
2022-08-25T08:38:34.615Z,28.19
2022-08-25T08:39:34.590Z,28.37
2022-08-25T08:40:34.682Z,28.57
2022-08-25T08:41:54.213Z,28.74
2022-08-25T08:42:35.560Z,28.89
2022-08-25T08:43:34.552Z,29.04
2022-08-25T08:44:34.539Z,29.22
2022-08-25T08:45:35.595Z,29.24
2022-08-25T08:46:35.571Z,28.89
2022-08-25T08:47:34.513Z,28.56
2022-08-25T08:48:34.499Z,28.30
2022-08-25T08:49:34.494Z,28.10
2022-08-25T08:50:34.585Z,27.93
2022-08-25T08:51:34.508Z,27.79
2022-08-25T08:52:34.483Z,28.01
2022-08-25T08:53:34.451Z,28.13
2022-08-25T08:54:34.454Z,27.93
2022-08-25T08:55:34.428Z,27.76
2022-08-25T08:56:34.438Z,27.60
2022-08-25T08:57:34.407Z,27.44
2022-08-25T08:58:34.398Z,27.35
2022-08-25T08:59:34.389Z,27.23
2022-08-25T09:00:34.390Z,27.16
2022-08-25T09:01:34.447Z,27.07
2022-08-25T09:02:39.270Z,26.98
2022-08-25T09:03:35.387Z,26.90
2022-08-25T09:04:34.340Z,26.85
2022-08-25T09:05:37.241Z,26.78
2022-08-25T09:06:35.343Z,26.75
2022-08-25T09:07:34.340Z,26.68
2022-08-25T09:08:34.301Z,26.64
2022-08-25T09:09:35.682Z,26.58
2022-08-25T09:10:34.274Z,26.53
2022-08-25T09:11:34.301Z,26.49
2022-08-25T09:12:34.256Z,26.46
2022-08-25T09:13:34.255Z,26.42
2022-08-25T09:14:34.236Z,26.41
2022-08-25T09:15:40.965Z,26.38
2022-08-25T09:16:35.274Z,26.38
2022-08-25T09:17:34.217Z,26.38
2022-08-25T09:18:36.792Z,26.46
2022-08-25T09:19:35.211Z,26.58
2022-08-25T09:20:34.178Z,26.53
2022-08-25T09:21:34.177Z,26.49
2022-08-25T09:22:36.359Z,26.64
2022-08-25T09:23:34.160Z,26.67
2022-08-25T09:24:34.140Z,26.63
2022-08-25T09:25:52.464Z,26.60
2022-08-25T09:26:35.121Z,26.57
2022-08-25T09:27:34.151Z,26.58
2022-08-25T09:28:34.114Z,26.97
2022-08-25T09:29:34.106Z,27.04
2022-08-25T09:30:34.082Z,27.31
2022-08-25T09:31:34.150Z,27.57
2022-08-25T09:32:34.094Z,27.40
2022-08-25T09:33:35.452Z,27.30
2022-08-25T09:34:34.045Z,27.17
2022-08-25T09:35:34.045Z,27.20
2022-08-25T09:36:37.564Z,27.16
2022-08-25T09:37:34.046Z,27.05
2022-08-25T09:38:34.007Z,26.97
2022-08-25T09:39:33.997Z,26.90
2022-08-25T09:40:34.069Z,26.93
2022-08-25T09:41:33.979Z,26.97
2022-08-25T09:42:34.009Z,26.97
2022-08-25T09:43:33.960Z,27.32
2022-08-25T09:44:33.941Z,27.69
2022-08-25T09:45:33.940Z,27.95
2022-08-25T09:46:33.957Z,27.82
2022-08-25T09:47:33.942Z,27.69
2022-08-25T09:48:37.768Z,27.87
2022-08-25T09:49:34.900Z,28.10
2022-08-25T09:50:34.842Z,28.37
2022-08-25T09:51:38.003Z,28.61
2022-08-25T09:52:34.900Z,28.74
2022-08-25T09:53:34.114Z,28.80
2022-08-25T09:54:33.844Z,28.93
2022-08-25T09:55:34.844Z,29.15
2022-08-25T09:56:33.825Z,29.34
2022-08-25T09:57:33.846Z,29.43
2022-08-25T09:58:33.805Z,29.56
2022-08-25T09:59:35.101Z,29.71
2022-08-25T10:00:33.826Z,29.80
2022-08-25T10:01:34.928Z,29.77
2022-08-25T10:02:33.797Z,29.61
2022-08-25T10:03:36.524Z,29.52
2022-08-25T10:04:33.759Z,29.61
2022-08-25T10:05:33.778Z,29.66
2022-08-25T10:06:33.729Z,29.71
2022-08-25T10:07:33.760Z,29.74
2022-08-25T10:08:33.710Z,29.84
2022-08-25T10:09:33.711Z,29.89
2022-08-25T10:10:33.690Z,29.78
2022-08-25T10:11:33.699Z,29.59
2022-08-25T10:12:33.703Z,29.47
2022-08-25T10:13:33.664Z,29.62
2022-08-25T10:14:33.644Z,29.76
2022-08-25T10:15:33.709Z,29.89
2022-08-25T10:16:36.045Z,29.99
2022-08-25T10:17:33.780Z,30.11
2022-08-25T10:18:33.614Z,30.21
2022-08-25T10:19:33.607Z,30.29
2022-08-25T10:20:35.026Z,30.40
2022-08-25T10:21:33.586Z,30.49
2022-08-25T10:22:33.627Z,30.53
2022-08-25T10:23:33.568Z,30.64
2022-08-25T10:24:33.558Z,30.74
2022-08-25T10:25:33.548Z,30.80
2022-08-25T10:26:35.091Z,30.86
2022-08-25T10:27:33.551Z,30.90
2022-08-25T10:28:33.511Z,30.97
2022-08-25T10:29:33.511Z,31.04
2022-08-25T10:30:33.537Z,31.12
2022-08-25T10:31:34.788Z,31.22
2022-08-25T10:32:33.501Z,31.30
2022-08-25T10:33:33.472Z,31.29
2022-08-25T10:34:33.454Z,31.22
2022-08-25T10:35:33.453Z,31.24
2022-08-25T10:36:33.441Z,31.30
2022-08-25T10:37:33.455Z,31.34
2022-08-25T10:38:36.114Z,31.38
2022-08-25T10:39:36.473Z,31.14
2022-08-25T10:40:33.484Z,30.86
2022-08-25T10:41:33.397Z,30.62
2022-08-25T10:42:33.415Z,30.52
2022-08-25T10:43:33.379Z,30.59
2022-08-25T10:44:33.358Z,30.64
2022-08-25T10:45:33.359Z,30.64
2022-08-25T10:46:33.465Z,30.65
2022-08-25T10:47:33.366Z,30.71
2022-08-25T10:48:33.320Z,30.82
2022-08-25T10:49:33.320Z,30.83
2022-08-25T10:50:33.311Z,30.86
2022-08-25T10:51:33.303Z,30.95
2022-08-25T10:52:33.316Z,31.02
2022-08-25T10:53:33.283Z,31.08
2022-08-25T10:54:33.273Z,31.14
2022-08-25T10:55:33.263Z,31.20
2022-08-25T10:56:34.246Z,31.20
2022-08-25T10:57:33.273Z,31.27
2022-08-25T10:58:33.226Z,31.34
2022-08-25T10:59:33.225Z,31.46
2022-08-25T11:00:33.290Z,31.52
2022-08-25T11:01:42.932Z,31.54
2022-08-25T11:02:34.226Z,31.59
2022-08-25T11:03:35.390Z,31.59
2022-08-25T11:04:33.169Z,31.60
2022-08-25T11:05:33.194Z,31.67
2022-08-25T11:06:33.169Z,31.78
2022-08-25T11:07:33.170Z,31.82
2022-08-25T11:08:33.140Z,31.81
2022-08-25T11:09:33.129Z,31.87
2022-08-25T11:10:33.120Z,31.94
2022-08-25T11:11:33.109Z,31.86
2022-08-25T11:12:33.121Z,31.76
2022-08-25T11:13:33.093Z,31.70
2022-08-25T11:14:34.631Z,31.78
2022-08-25T11:15:33.083Z,31.87
2022-08-25T11:16:33.099Z,31.86
2022-08-25T11:17:33.075Z,31.91
2022-08-25T11:18:33.061Z,31.97
2022-08-25T11:19:33.826Z,31.86
2022-08-25T11:20:33.026Z,31.81
2022-08-25T11:21:35.915Z,31.79
2022-08-25T11:22:33.036Z,31.89
2022-08-25T11:23:32.996Z,32.50
2022-08-25T11:24:33.000Z,32.87
2022-08-25T11:25:32.978Z,33.35
2022-08-25T11:26:36.609Z,33.73
2022-08-25T11:27:32.981Z,34.03
2022-08-25T11:28:32.951Z,34.25
2022-08-25T11:29:32.940Z,34.37
2022-08-25T11:30:32.969Z,34.59
2022-08-25T11:31:32.928Z,34.90
2022-08-25T11:32:32.945Z,35.07
2022-08-25T11:33:33.012Z,35.24
2022-08-25T11:34:33.812Z,35.42
2022-08-25T11:35:32.894Z,35.46
2022-08-25T11:36:32.888Z,35.36
2022-08-25T11:37:32.894Z,35.29
2022-08-25T11:38:32.854Z,35.35
2022-08-25T11:39:34.492Z,35.44
2022-08-25T11:40:32.883Z,35.60
2022-08-25T11:41:32.825Z,35.75
2022-08-25T11:42:32.865Z,35.92
2022-08-25T11:43:35.648Z,36.00
2022-08-25T11:44:32.798Z,36.15
2022-08-25T11:45:32.789Z,36.29
2022-08-25T11:46:32.837Z,36.51
2022-08-25T11:47:32.768Z,36.48
2022-08-25T11:48:32.789Z,35.68
2022-08-25T11:49:32.748Z,35.05
2022-08-25T11:50:32.755Z,34.55
2022-08-25T11:51:33.736Z,34.15
2022-08-25T11:52:32.768Z,34.06
2022-08-25T11:53:32.712Z,34.75
2022-08-25T11:54:32.711Z,35.29
2022-08-25T11:55:32.701Z,35.70
2022-08-25T11:56:32.786Z,36.04
2022-08-25T11:57:32.703Z,36.36
2022-08-25T11:58:32.679Z,36.64
2022-08-25T11:59:32.678Z,36.94
2022-08-25T12:00:32.660Z,37.05
2022-08-25T12:01:32.691Z,36.88
2022-08-25T12:02:32.675Z,36.85
2022-08-25T12:03:32.644Z,36.78
2022-08-25T12:04:32.758Z,35.98
2022-08-25T12:05:32.629Z,35.73
2022-08-25T12:06:32.606Z,35.54
2022-08-25T12:07:32.617Z,35.70
2022-08-25T12:08:32.588Z,35.92
2022-08-25T12:09:32.571Z,35.95
2022-08-25T12:10:32.579Z,36.33
2022-08-25T12:11:32.550Z,36.64
2022-08-25T12:12:32.571Z,36.96
2022-08-25T12:13:32.550Z,37.15
2022-08-25T12:14:32.540Z,37.34
2022-08-25T12:15:32.522Z,37.44
2022-08-25T12:16:32.589Z,37.61
2022-08-25T12:17:32.524Z,37.54
2022-08-25T12:18:32.502Z,37.41
2022-08-25T12:19:32.485Z,37.32
2022-08-25T12:20:32.482Z,37.35
2022-08-25T12:21:32.475Z,37.35
2022-08-25T12:22:32.494Z,37.32
2022-08-25T12:23:32.464Z,37.31
2022-08-25T12:24:32.446Z,37.20
2022-08-25T12:25:33.873Z,36.82
2022-08-25T12:26:32.435Z,36.56
2022-08-25T12:27:33.799Z,36.45
2022-08-25T12:28:34.991Z,36.40
2022-08-25T12:29:33.231Z,36.66
2022-08-25T12:30:32.478Z,36.83
2022-08-25T12:31:32.653Z,37.03
2022-08-25T12:32:32.409Z,36.98
2022-08-25T12:33:32.369Z,36.93
2022-08-25T12:34:36.336Z,36.88
2022-08-25T12:35:32.360Z,36.81
2022-08-25T12:36:33.244Z,36.67
2022-08-25T12:37:32.362Z,36.32
2022-08-25T12:38:32.338Z,35.79
2022-08-25T12:39:32.315Z,35.83
2022-08-25T12:40:32.393Z,35.92
2022-08-25T12:41:33.587Z,36.14
2022-08-25T12:42:32.317Z,36.19
2022-08-25T12:43:35.541Z,35.98
2022-08-25T12:44:33.273Z,35.91
2022-08-25T12:45:32.380Z,35.84
2022-08-25T12:46:33.101Z,35.94
2022-08-25T12:47:32.358Z,36.07
2022-08-25T12:48:32.248Z,36.35
2022-08-25T12:49:32.229Z,36.38
2022-08-25T12:50:32.220Z,36.51
2022-08-25T12:51:32.207Z,36.70
2022-08-25T12:52:32.229Z,36.98